Timeline UpdatesTrip UpdatesNews PostsPvt PostsTravel TipsAdmin PostsConv PostsFollowed PostsChat RequestsBlog PostsPNR Posts

Disclaimer
Search
 
 
Wed Jul 30, 2014 00:22:59 ISTHomeTrainsΣChainsAtlasPNRForumGalleryNewsFAQTripsMembersLoginFeedback
No Recent News for this Train
Other Trains in the News **new
Latest...
.
Tue Oct 29, 2013 (01:06PM)
⇐ Return Journey: Train# 18646

18645/East Coast Express

Feb 01 2014 (6:14PM)
Change Departure Station:
Change Arrival Station:
Post a Train Travel TipPost a Train Travel Tip **new
Post a Comment/Question/Picture/VideoPost a Comment/Question/Picture/Video
Inaugural Run
Fri May 16, 1975
Pantry/Catering
✕ NO Pantry Car
✓ Catering Avbl
Loco/Rake Reversals
VSKP/Visakhapatnam Junction (8); BZA/Vijayawada Junction (10);
RSA - Rake Sharing
18616/18615 Hatia-Howrah Express-18645/18646 Howrah-Hyderabad East Coast Express.; http://goo.gl/eoVrw
Rake/Coach Composition
HCPV-HCPV-SLR-GS-A1-B1-B2-B3-B4-S11-S10-S9-S8-S7-S6-S5-S4-S3-S2-S1-GS-SLR-ENG.; As seen at SRC by Sabyasachi on 12-12-2012.
Loco
Official Loco Links:- HWH - VSKP :- VSKP WAP-4 /...
Read more...
VSKP WAM-4 VSKP - BZA :- WAP-4/WAM-4 BZA - VSKP :- WAP-4/WAP-7
News    PNR    Forum    Time-Table    Availability    Fare Chart    Map    Arr/Dep History    Trips    Gallery    ΣChains    X/O    Timeline    
Travel Time: 30h 15m    56 halts    Distance: 1580 km    Avg Speed: 52 km/hr
Type: Mail/Express
Zone: SER/South Eastern
Departs @ 11:45 (Avg 3m late)
Platform# 22
SMTWTFS
Kolkata Howrah Junction/HWH 
Arrives @ 18:00 +1 night (Avg 28m late)
Platform# 5
SMTWTFS
Secunderabad Junction/SC 

56 halts. 266 intermediate Stations between Kolkata Howrah Junction and Secunderabad Junction

Show ALL intermediate Stations  Show Old Time-Table

#CodeStation NameX/OArrivesAvgDepartsAvgHaltPFDay#KmSpeedElevZoneAddress
1HWH»Kolkata Howrah Junction (23)»  -11:45+32210.06410mERHowrah 711101, West Bengal
2MCAMecheda (6)X  12:40+1212:42+192m--158.23510mSERdist - purba Medinipur, West Bengal
3PKUPanskura Junction (6)X  13:03+1013:04+141m--170.6629mSERPanskura, West Bengal
4KGPKharagpur Junction (10)X  13:47+813:52+125m11115.07142mSERKharagpur, West Bengal
5BLDABelda  14:22+1814:23+191m--1150.57624mSERDistrict Paschim Medinipur, West Bengal
6JERJaleswar (4)  14:49+1914:50+211m--1183.66113mSERJaleswar, Odisha
7BTSBasta (3)X  15:09+1915:10+211m--1203.14416mSERBasta, Odisha
8ROPRupsa Junction (5)XO  15:24+1715:25+181m--1213.35313mSERRupsa, Odisha
9BLSBalasore (4)  15:45+1515:50+145m--1231.18419mSERBalasore, Odisha
10SOROSoro  16:14+1416:15+141m--1264.66314mSERSoro, Odisha
11MKOMarkonaX  16:29+1516:30+131m--1279.32018mSERMarkuna, Odisha
12BHCBhadrak (4)O  17:13+417:15+72m--1293.69123mECoRBhadrak, Odisha
13BTVBaitarani Road  17:36+1517:37+151m--1325.45927mECoRBaitarani, Odisha
14KRIHKorai Halt  17:44+1517:45+151m--1332.34930mECoRJajapur, Odisha
15JJKRJajpur Keonjhar Road (4)  17:51+1617:52+181m--1337.27836mECoRJajpur, Odisha
16DNMDhanmandal (3)X  18:20+1818:21+181m--1373.76338mECoRDhanmanda, Odisha
17CTCCuttack Junction (5)X  18:55+1919:00+225m31409.24328mECoRCuttack, Odisha
18BRAGBarang  19:17+2319:18+241m--1421.43527mECoRDist - Cuttack, Odisha
19BBSBhubaneswar (4)X  19:45+2319:50+235m41437.13840mECoRBhubaneshwar, Odisha
20KURKhurda Road Junction (7)X  20:20+2220:35+2315m81456.07225mECoRKhordha, Odisha
21NKPNirakarpur  20:57+2620:58+271m--1482.57321mECoRNirakarpur, Odisha
22KAPGKalupara Ghat  21:12+2821:13+291m31499.47510mECoRChandeswar, Odisha
23BALUBalugaon (3)  21:35+3021:36+321m21527.15411mECoR752030, Odisha
24CLKAChilka  21:44+3221:45+331m--1534.36725mECoRBarkul, Odisha
25KITKhallikot (3)  21:54+3321:55+341m--1544.38013mECoRKhallikot, Odisha
26CAPChatrapurX  22:23+4122:24+421m--1581.78036mECoRChatrapur, Odisha
27BAMBrahmapur (3)O  22:40+4222:50+3810m21603.26427mECoRBerhampur, Odisha
28IPMIchchapuramX  23:13+4523:14+461m--1627.67721mECoRIchchapuram, Andhra Pradesh
29SPTSompeta (4)O  23:28+2623:29+261m--1645.63948mECoRKanchili, Andhra Pradesh
30PSAPalasa (3)X  00:18+2700:20+282m--2677.56731mECoRKasibugga, Andhra Pradesh
31NWPNaupada Junction  00:43+3400:44+371m--2703.27913mECoRNuapada . ph.no. 08945-249728, Andhra Pradesh
32CHESrikakulam Road (4)  01:20+4401:22+452m--2750.57534mECoRsrikakulam road ph .no. 08942-287222, Andhra Pradesh
33CPPChipurupalleX  01:53+4701:54+481m--2789.15199mECoRCheepurupalli, Andhra Pradesh
34VZMVizianagaram Junction (5)  02:30+4302:35+445m--2820.07563mECoRVizianagaram, Andhra Pradesh
35KTVKottavalasa Junction (5)  03:03+4903:04+511m--2855.06458mECoRVizianagaram District, Andhra Pradesh
36SCMSimhachalam (2)  03:21+1603:22+161m--2873.02127mECoRVisakhapatnam, Andhra Pradesh
37VSKPVisakhapatnam Junction (8)X03:45+4304:05+3920m32881.23511mECoRVishakhapatnam 530001, Andhra Pradesh
38DVDDuvvada (4)X  04:33+4004:35+402m12897.55346mECoRVishakhapatnam District, Andhra Pradesh
39AKPAnakapalle (3)  04:53+4704:54+481m22913.57130mSCRAnakapalle ph.no . 08924-221698, Andhra Pradesh
40YLMElamanchili (2)X  05:14+5005:15+511m12937.28623mSCRVisakhapatnam District, Andhra Pradesh
41TUNITuni (2)  05:43+1:0305:44+1:041m12977.37124mSCRTuni ph.no. 08854-252172, Andhra Pradesh
42ANVAnnavaram (3)  05:58+1:0505:59+1:061m12993.97427mSCREast Godavari District, Andhra Pradesh
43PAPPithapuram (2)  06:19+1:0806:20+1:121m121018.75222mSCREast Godavari District, Andhra Pradesh
44SLOSamalkot Junction (3)  06:34+1:1306:35+1:141m321030.86318mSCRSamalkot, Andhra Pradesh
45DWPDwarapudi (3)07:04+1:1107:05+1:121m--21061.13220mSCREast Godavari District, Andhra Pradesh
46RJYRajahmundry (3)  07:42+1:0307:44+1:062m121081.05523mSCRRajahmundry ph.no. 0883-2420541, Andhra Pradesh
47NDDNidadavolu Junction (3)X  08:08+1:1408:09+1:151m221103.17120mSCRNidadavolu jtn ph.no. 08813-210325, Andhra Pradesh
48TDDTadepalligudem (3)  08:26+1:1608:27+1:171m321123.18718mSCRTadepalligudem, Andhra Pradesh
49EEEluru (3)  09:00+1:2009:01+1:211m321170.93019mSCREluru Ph.no. 08812 226401., Andhra Pradesh
50BZAVijayawada Junction (10)X11:00+4011:20+5020m121230.28624mSCRVijayawada 520001, Andhra Pradesh
51KMTKhammam (2)  12:30+1:2012:32+1:212m221330.666118mSCRKhammam 507001, Telangana
52MABDMahbubabad (2)  13:15+1:1513:16+1:161m221378.169200mSCRWarangal Dist., Telangana
53WLWarangal (3)  14:08+1:1614:10+1:182m221438.220271mSCRWarangal., Telangana
54KZJKazipet Junction (3)X  14:40+1:0714:42+1:102m321448.459292mSCRWarangal Dist., Telangana
55ZNJangaon (2)  15:31+1:0415:32+1:041m121496.339380mSCRWarangal Dist., Telangana
56ALERAler (2)  15:55+5315:56+541m221511.345366mSCRNalgonda Dist., Telangana
57BGBhongir (3)X  16:26+4816:27+481m121533.630455mSCRNalgonda Dist., Telangana
58SC•Secunderabad Junction (10)•X  18:00+2818:05+285m521580.022539mSCRSecunderabad 500003, Telangana
59HYBHyderabad Deccan Nampally (6)  18:30+24-521589.2-510mSCRHyderabad, Telangana
Scroll to Top
Scroll to Bottom